sensor_id;sensor_type;location;lat;lon;timestamp;P1;durP1;ratioP1;P2;durP2;ratioP2
70213;SDS011;60138;55.808;37.078;2023-03-24T00:02:15;17.40;;;11.68;;
70213;SDS011;60138;55.808;37.078;2023-03-24T00:04:40;16.52;;;11.95;;
70213;SDS011;60138;55.808;37.078;2023-03-24T00:07:06;18.38;;;11.57;;
70213;SDS011;60138;55.808;37.078;2023-03-24T00:09:33;18.40;;;11.25;;
70213;SDS011;60138;55.808;37.078;2023-03-24T00:11:58;22.73;;;11.73;;
70213;SDS011;60138;55.808;37.078;2023-03-24T00:14:24;20.23;;;12.73;;
70213;SDS011;60138;55.808;37.078;2023-03-24T00:16:50;19.02;;;11.32;;
70213;SDS011;60138;55.808;37.078;2023-03-24T00:19:16;18.33;;;12.27;;
70213;SDS011;60138;55.808;37.078;2023-03-24T00:21:42;19.80;;;11.75;;
70213;SDS011;60138;55.808;37.078;2023-03-24T00:24:09;18.90;;;12.20;;
70213;SDS011;60138;55.808;37.078;2023-03-24T00:26:36;26.50;;;13.18;;
70213;SDS011;60138;55.808;37.078;2023-03-24T00:29:05;17.33;;;11.60;;
70213;SDS011;60138;55.808;37.078;2023-03-24T00:31:33;17.92;;;11.27;;
70213;SDS011;60138;55.808;37.078;2023-03-24T00:33:59;19.52;;;12.48;;
70213;SDS011;60138;55.808;37.078;2023-03-24T00:36:25;23.45;;;12.80;;
70213;SDS011;60138;55.808;37.078;2023-03-24T00:38:52;21.07;;;12.87;;
70213;SDS011;60138;55.808;37.078;2023-03-24T00:41:18;18.70;;;12.65;;
70213;SDS011;60138;55.808;37.078;2023-03-24T00:43:45;17.48;;;12.73;;
70213;SDS011;60138;55.808;37.078;2023-03-24T00:46:12;19.47;;;12.47;;
70213;SDS011;60138;55.808;37.078;2023-03-24T00:48:39;19.08;;;11.93;;
70213;SDS011;60138;55.808;37.078;2023-03-24T00:51:05;19.02;;;12.50;;
70213;SDS011;60138;55.808;37.078;2023-03-24T00:53:32;18.63;;;12.27;;
70213;SDS011;60138;55.808;37.078;2023-03-24T00:55:58;19.13;;;12.63;;
70213;SDS011;60138;55.808;37.078;2023-03-24T00:58:24;20.35;;;13.15;;
70213;SDS011;60138;55.808;37.078;2023-03-24T01:00:53;18.02;;;13.63;;
70213;SDS011;60138;55.808;37.078;2023-03-24T01:03:21;18.07;;;12.10;;
70213;SDS011;60138;55.808;37.078;2023-03-24T01:05:48;21.08;;;12.48;;
70213;SDS011;60138;55.808;37.078;2023-03-24T01:08:14;19.52;;;13.48;;
70213;SDS011;60138;55.808;37.078;2023-03-24T01:10:42;22.23;;;12.23;;
70213;SDS011;60138;55.808;37.078;2023-03-24T01:13:08;19.80;;;13.13;;
70213;SDS011;60138;55.808;37.078;2023-03-24T01:15:33;18.42;;;12.88;;
70213;SDS011;60138;55.808;37.078;2023-03-24T01:17:59;23.27;;;12.52;;
70213;SDS011;60138;55.808;37.078;2023-03-24T01:20:25;19.43;;;12.10;;
70213;SDS011;60138;55.808;37.078;2023-03-24T01:22:51;21.70;;;13.02;;
70213;SDS011;60138;55.808;37.078;2023-03-24T01:25:18;25.70;;;12.83;;
70213;SDS011;60138;55.808;37.078;2023-03-24T01:27:46;20.00;;;12.73;;
70213;SDS011;60138;55.808;37.078;2023-03-24T01:30:13;20.58;;;13.63;;
70213;SDS011;60138;55.808;37.078;2023-03-24T01:32:41;19.10;;;11.80;;
70213;SDS011;60138;55.808;37.078;2023-03-24T01:35:07;23.07;;;13.17;;
70213;SDS011;60138;55.808;37.078;2023-03-24T01:37:33;19.77;;;13.38;;
70213;SDS011;60138;55.808;37.078;2023-03-24T01:39:59;19.17;;;13.43;;
70213;SDS011;60138;55.808;37.078;2023-03-24T01:42:25;19.02;;;11.90;;
70213;SDS011;60138;55.808;37.078;2023-03-24T01:44:55;19.20;;;12.77;;
70213;SDS011;60138;55.808;37.078;2023-03-24T01:47:25;18.25;;;13.00;;
70213;SDS011;60138;55.808;37.078;2023-03-24T01:49:53;20.80;;;12.87;;
70213;SDS011;60138;55.808;37.078;2023-03-24T01:52:24;21.00;;;12.45;;
70213;SDS011;60138;55.808;37.078;2023-03-24T01:54:56;21.55;;;13.38;;
70213;SDS011;60138;55.808;37.078;2023-03-24T01:57:34;18.92;;;11.75;;
70213;SDS011;60138;55.808;37.078;2023-03-24T02:00:08;18.10;;;12.07;;
70213;SDS011;60138;55.808;37.078;2023-03-24T02:03:05;20.87;;;12.10;;
70213;SDS011;60138;55.808;37.078;2023-03-24T02:05:42;20.15;;;13.38;;
70213;SDS011;60138;55.808;37.078;2023-03-24T02:08:18;21.58;;;12.55;;
70213;SDS011;60138;55.808;37.078;2023-03-24T02:10:44;19.83;;;12.60;;
70213;SDS011;60138;55.808;37.078;2023-03-24T02:13:11;22.08;;;12.82;;
70213;SDS011;60138;55.808;37.078;2023-03-24T02:15:41;18.63;;;12.27;;
70213;SDS011;60138;55.808;37.078;2023-03-24T02:27:03;22.90;;;12.88;;
70213;SDS011;60138;55.808;37.078;2023-03-24T02:43:04;17.70;;;11.13;;
70213;SDS011;60138;55.808;37.078;2023-03-24T02:48:04;19.20;;;12.55;;
70213;SDS011;60138;55.808;37.078;2023-03-24T02:53:07;21.98;;;14.43;;
70213;SDS011;60138;55.808;37.078;2023-03-24T02:55:53;24.70;;;12.60;;
70213;SDS011;60138;55.808;37.078;2023-03-24T03:01:30;22.95;;;13.40;;
70213;SDS011;60138;55.808;37.078;2023-03-24T03:04:40;17.58;;;11.48;;
70213;SDS011;60138;55.808;37.078;2023-03-24T03:07:10;17.45;;;12.40;;
70213;SDS011;60138;55.808;37.078;2023-03-24T03:09:43;18.83;;;12.00;;
70213;SDS011;60138;55.808;37.078;2023-03-24T03:12:15;20.85;;;11.02;;
70213;SDS011;60138;55.808;37.078;2023-03-24T03:14:44;18.90;;;13.32;;
70213;SDS011;60138;55.808;37.078;2023-03-24T03:17:18;19.42;;;11.80;;
70213;SDS011;60138;55.808;37.078;2023-03-24T03:19:52;20.20;;;12.73;;
70213;SDS011;60138;55.808;37.078;2023-03-24T03:22:22;18.70;;;12.33;;
70213;SDS011;60138;55.808;37.078;2023-03-24T03:24:51;17.95;;;12.52;;
70213;SDS011;60138;55.808;37.078;2023-03-24T03:27:19;19.63;;;12.60;;
70213;SDS011;60138;55.808;37.078;2023-03-24T03:29:49;19.05;;;13.05;;
70213;SDS011;60138;55.808;37.078;2023-03-24T03:32:25;21.05;;;13.95;;
70213;SDS011;60138;55.808;37.078;2023-03-24T03:39:58;19.27;;;12.55;;
70213;SDS011;60138;55.808;37.078;2023-03-24T03:42:30;18.85;;;13.43;;
70213;SDS011;60138;55.808;37.078;2023-03-24T03:44:57;19.95;;;13.82;;
70213;SDS011;60138;55.808;37.078;2023-03-24T03:47:23;20.43;;;12.70;;
70213;SDS011;60138;55.808;37.078;2023-03-24T03:49:49;22.35;;;14.00;;
70213;SDS011;60138;55.808;37.078;2023-03-24T03:52:15;21.38;;;14.73;;
70213;SDS011;60138;55.808;37.078;2023-03-24T03:54:42;20.40;;;15.27;;
70213;SDS011;60138;55.808;37.078;2023-03-24T03:57:09;21.10;;;14.10;;
70213;SDS011;60138;55.808;37.078;2023-03-24T04:00:03;22.58;;;13.82;;
70213;SDS011;60138;55.808;37.078;2023-03-24T04:05:34;24.65;;;15.18;;
70213;SDS011;60138;55.808;37.078;2023-03-24T04:29:10;23.80;;;16.52;;
70213;SDS011;60138;55.808;37.078;2023-03-24T04:34:58;24.08;;;15.85;;
70213;SDS011;60138;55.808;37.078;2023-03-24T04:38:08;26.90;;;16.15;;
70213;SDS011;60138;55.808;37.078;2023-03-24T04:40:38;22.20;;;15.10;;
70213;SDS011;60138;55.808;37.078;2023-03-24T04:43:05;25.58;;;14.73;;
70213;SDS011;60138;55.808;37.078;2023-03-24T04:45:36;23.35;;;16.15;;
70213;SDS011;60138;55.808;37.078;2023-03-24T04:48:31;24.45;;;17.60;;
70213;SDS011;60138;55.808;37.078;2023-03-24T04:51:11;23.83;;;15.68;;
70213;SDS011;60138;55.808;37.078;2023-03-24T04:54:00;21.07;;;14.90;;
70213;SDS011;60138;55.808;37.078;2023-03-24T04:59:07;22.85;;;15.65;;
70213;SDS011;60138;55.808;37.078;2023-03-24T05:01:35;26.25;;;15.40;;
70213;SDS011;60138;55.808;37.078;2023-03-24T05:04:20;27.48;;;15.70;;
70213;SDS011;60138;55.808;37.078;2023-03-24T05:06:48;23.23;;;14.87;;
70213;SDS011;60138;55.808;37.078;2023-03-24T05:09:17;25.58;;;15.85;;
70213;SDS011;60138;55.808;37.078;2023-03-24T05:11:44;25.90;;;15.52;;
70213;SDS011;60138;55.808;37.078;2023-03-24T05:14:09;27.40;;;17.07;;
70213;SDS011;60138;55.808;37.078;2023-03-24T05:16:36;27.13;;;17.08;;
70213;SDS011;60138;55.808;37.078;2023-03-24T05:19:02;24.27;;;16.55;;
70213;SDS011;60138;55.808;37.078;2023-03-24T05:21:32;27.65;;;15.95;;
70213;SDS011;60138;55.808;37.078;2023-03-24T05:23:58;26.33;;;16.58;;
70213;SDS011;60138;55.808;37.078;2023-03-24T05:26:24;25.17;;;15.63;;
70213;SDS011;60138;55.808;37.078;2023-03-24T05:29:02;27.50;;;16.38;;
70213;SDS011;60138;55.808;37.078;2023-03-24T05:31:28;26.52;;;16.33;;
70213;SDS011;60138;55.808;37.078;2023-03-24T05:34:01;29.42;;;16.35;;
70213;SDS011;60138;55.808;37.078;2023-03-24T05:36:27;27.02;;;16.67;;
70213;SDS011;60138;55.808;37.078;2023-03-24T05:38:56;23.53;;;15.87;;
70213;SDS011;60138;55.808;37.078;2023-03-24T05:41:28;25.40;;;16.23;;
70213;SDS011;60138;55.808;37.078;2023-03-24T05:43:53;24.33;;;16.60;;
70213;SDS011;60138;55.808;37.078;2023-03-24T05:46:19;29.27;;;17.17;;
70213;SDS011;60138;55.808;37.078;2023-03-24T05:48:47;24.15;;;16.38;;
70213;SDS011;60138;55.808;37.078;2023-03-24T05:51:15;27.35;;;16.70;;
70213;SDS011;60138;55.808;37.078;2023-03-24T05:53:41;29.45;;;17.33;;
70213;SDS011;60138;55.808;37.078;2023-03-24T05:56:24;25.20;;;16.50;;
70213;SDS011;60138;55.808;37.078;2023-03-24T05:59:02;25.77;;;15.60;;
70213;SDS011;60138;55.808;37.078;2023-03-24T06:01:46;23.27;;;16.10;;
70213;SDS011;60138;55.808;37.078;2023-03-24T06:04:25;23.55;;;15.88;;
70213;SDS011;60138;55.808;37.078;2023-03-24T06:06:58;24.77;;;16.02;;
70213;SDS011;60138;55.808;37.078;2023-03-24T06:09:29;24.80;;;15.30;;
70213;SDS011;60138;55.808;37.078;2023-03-24T06:11:55;24.75;;;15.80;;
70213;SDS011;60138;55.808;37.078;2023-03-24T06:14:23;23.25;;;16.52;;
70213;SDS011;60138;55.808;37.078;2023-03-24T06:16:59;26.00;;;15.93;;
70213;SDS011;60138;55.808;37.078;2023-03-24T06:19:25;25.50;;;15.93;;
70213;SDS011;60138;55.808;37.078;2023-03-24T06:22:03;25.52;;;16.42;;
70213;SDS011;60138;55.808;37.078;2023-03-24T06:24:34;29.70;;;17.85;;
70213;SDS011;60138;55.808;37.078;2023-03-24T06:27:05;22.63;;;15.98;;
70213;SDS011;60138;55.808;37.078;2023-03-24T06:29:32;24.13;;;16.57;;
70213;SDS011;60138;55.808;37.078;2023-03-24T06:31:59;22.25;;;15.45;;
70213;SDS011;60138;55.808;37.078;2023-03-24T06:34:25;24.40;;;15.65;;
70213;SDS011;60138;55.808;37.078;2023-03-24T06:37:10;24.10;;;15.10;;
70213;SDS011;60138;55.808;37.078;2023-03-24T06:39:36;23.40;;;15.20;;
70213;SDS011;60138;55.808;37.078;2023-03-24T06:42:03;23.07;;;16.03;;
70213;SDS011;60138;55.808;37.078;2023-03-24T06:44:29;22.38;;;14.20;;
70213;SDS011;60138;55.808;37.078;2023-03-24T06:46:55;21.15;;;13.93;;
70213;SDS011;60138;55.808;37.078;2023-03-24T06:49:20;24.17;;;14.67;;
70213;SDS011;60138;55.808;37.078;2023-03-24T06:51:46;22.10;;;14.73;;
70213;SDS011;60138;55.808;37.078;2023-03-24T06:54:14;22.15;;;15.52;;
70213;SDS011;60138;55.808;37.078;2023-03-24T06:56:40;22.70;;;13.93;;
70213;SDS011;60138;55.808;37.078;2023-03-24T06:59:06;20.55;;;14.25;;
70213;SDS011;60138;55.808;37.078;2023-03-24T07:01:32;21.55;;;12.75;;
70213;SDS011;60138;55.808;37.078;2023-03-24T07:04:03;20.33;;;14.23;;
70213;SDS011;60138;55.808;37.078;2023-03-24T07:06:49;21.37;;;14.10;;
70213;SDS011;60138;55.808;37.078;2023-03-24T07:09:16;21.67;;;14.55;;
70213;SDS011;60138;55.808;37.078;2023-03-24T07:11:42;20.95;;;14.10;;
70213;SDS011;60138;55.808;37.078;2023-03-24T07:14:08;18.53;;;13.53;;
70213;SDS011;60138;55.808;37.078;2023-03-24T07:16:35;20.17;;;14.07;;
70213;SDS011;60138;55.808;37.078;2023-03-24T07:19:19;20.33;;;14.15;;
70213;SDS011;60138;55.808;37.078;2023-03-24T07:21:51;18.75;;;13.57;;
70213;SDS011;60138;55.808;37.078;2023-03-24T07:24:24;17.90;;;13.57;;
70213;SDS011;60138;55.808;37.078;2023-03-24T07:27:02;21.73;;;13.50;;
70213;SDS011;60138;55.808;37.078;2023-03-24T07:29:29;17.65;;;12.93;;
70213;SDS011;60138;55.808;37.078;2023-03-24T07:32:21;16.88;;;12.05;;
70213;SDS011;60138;55.808;37.078;2023-03-24T07:34:46;19.23;;;11.13;;
70213;SDS011;60138;55.808;37.078;2023-03-24T07:37:12;17.53;;;11.80;;
70213;SDS011;60138;55.808;37.078;2023-03-24T07:39:38;19.27;;;12.18;;
70213;SDS011;60138;55.808;37.078;2023-03-24T07:42:04;15.70;;;12.10;;
70213;SDS011;60138;55.808;37.078;2023-03-24T07:45:02;17.92;;;13.00;;
70213;SDS011;60138;55.808;37.078;2023-03-24T07:47:29;17.08;;;12.40;;
70213;SDS011;60138;55.808;37.078;2023-03-24T07:49:54;16.03;;;11.60;;
70213;SDS011;60138;55.808;37.078;2023-03-24T07:52:20;15.82;;;10.98;;
70213;SDS011;60138;55.808;37.078;2023-03-24T07:54:49;16.55;;;11.65;;
70213;SDS011;60138;55.808;37.078;2023-03-24T07:57:49;17.10;;;12.00;;
70213;SDS011;60138;55.808;37.078;2023-03-24T08:00:15;15.25;;;11.73;;
70213;SDS011;60138;55.808;37.078;2023-03-24T08:02:50;14.88;;;10.60;;
70213;SDS011;60138;55.808;37.078;2023-03-24T08:05:36;14.88;;;9.85;;
70213;SDS011;60138;55.808;37.078;2023-03-24T08:08:14;13.73;;;9.35;;
70213;SDS011;60138;55.808;37.078;2023-03-24T08:10:39;13.17;;;8.90;;
70213;SDS011;60138;55.808;37.078;2023-03-24T08:13:05;13.10;;;8.95;;
70213;SDS011;60138;55.808;37.078;2023-03-24T08:15:31;11.90;;;9.27;;
70213;SDS011;60138;55.808;37.078;2023-03-24T08:17:56;12.03;;;8.30;;
70213;SDS011;60138;55.808;37.078;2023-03-24T08:20:22;10.25;;;7.70;;
70213;SDS011;60138;55.808;37.078;2023-03-24T08:22:48;12.35;;;8.90;;
70213;SDS011;60138;55.808;37.078;2023-03-24T08:25:15;14.10;;;9.10;;
70213;SDS011;60138;55.808;37.078;2023-03-24T08:27:43;12.50;;;8.35;;
70213;SDS011;60138;55.808;37.078;2023-03-24T08:30:10;11.75;;;8.13;;
70213;SDS011;60138;55.808;37.078;2023-03-24T08:32:43;11.70;;;8.27;;
70213;SDS011;60138;55.808;37.078;2023-03-24T08:35:17;12.82;;;7.32;;
70213;SDS011;60138;55.808;37.078;2023-03-24T08:37:45;11.23;;;8.20;;
70213;SDS011;60138;55.808;37.078;2023-03-24T08:40:12;9.77;;;7.60;;
70213;SDS011;60138;55.808;37.078;2023-03-24T08:42:40;9.82;;;7.50;;
70213;SDS011;60138;55.808;37.078;2023-03-24T08:45:06;11.23;;;8.37;;
70213;SDS011;60138;55.808;37.078;2023-03-24T08:47:32;10.10;;;7.00;;
70213;SDS011;60138;55.808;37.078;2023-03-24T08:49:58;10.00;;;6.10;;
70213;SDS011;60138;55.808;37.078;2023-03-24T08:52:24;12.90;;;7.53;;
70213;SDS011;60138;55.808;37.078;2023-03-24T08:54:50;9.48;;;7.18;;
70213;SDS011;60138;55.808;37.078;2023-03-24T08:57:16;9.65;;;7.32;;
70213;SDS011;60138;55.808;37.078;2023-03-24T08:59:42;9.30;;;6.78;;
70213;SDS011;60138;55.808;37.078;2023-03-24T09:02:10;10.17;;;6.60;;
70213;SDS011;60138;55.808;37.078;2023-03-24T09:04:36;8.52;;;5.60;;
70213;SDS011;60138;55.808;37.078;2023-03-24T09:07:02;7.80;;;6.18;;
70213;SDS011;60138;55.808;37.078;2023-03-24T09:09:29;8.77;;;5.97;;
70213;SDS011;60138;55.808;37.078;2023-03-24T09:11:54;7.55;;;5.68;;
70213;SDS011;60138;55.808;37.078;2023-03-24T09:14:20;9.13;;;5.97;;
70213;SDS011;60138;55.808;37.078;2023-03-24T09:16:46;7.72;;;5.97;;
70213;SDS011;60138;55.808;37.078;2023-03-24T09:19:12;8.37;;;5.80;;
70213;SDS011;60138;55.808;37.078;2023-03-24T09:21:38;9.07;;;6.32;;
70213;SDS011;60138;55.808;37.078;2023-03-24T09:24:04;7.68;;;6.00;;
70213;SDS011;60138;55.808;37.078;2023-03-24T09:26:30;7.73;;;6.07;;
70213;SDS011;60138;55.808;37.078;2023-03-24T09:28:55;9.35;;;6.93;;
70213;SDS011;60138;55.808;37.078;2023-03-24T09:31:21;7.93;;;6.30;;
70213;SDS011;60138;55.808;37.078;2023-03-24T09:33:47;11.40;;;6.53;;
70213;SDS011;60138;55.808;37.078;2023-03-24T09:36:12;8.40;;;5.67;;
70213;SDS011;60138;55.808;37.078;2023-03-24T09:38:38;7.95;;;6.20;;
70213;SDS011;60138;55.808;37.078;2023-03-24T09:41:10;8.13;;;5.60;;
70213;SDS011;60138;55.808;37.078;2023-03-24T09:43:44;7.00;;;5.55;;
70213;SDS011;60138;55.808;37.078;2023-03-24T09:46:17;7.65;;;5.97;;
70213;SDS011;60138;55.808;37.078;2023-03-24T09:48:58;7.80;;;5.43;;
70213;SDS011;60138;55.808;37.078;2023-03-24T09:51:25;8.03;;;6.00;;
70213;SDS011;60138;55.808;37.078;2023-03-24T09:56:23;7.82;;;5.80;;
70213;SDS011;60138;55.808;37.078;2023-03-24T10:01:32;7.07;;;5.47;;
70213;SDS011;60138;55.808;37.078;2023-03-24T10:03:59;8.32;;;5.90;;
70213;SDS011;60138;55.808;37.078;2023-03-24T10:06:27;7.93;;;5.43;;
70213;SDS011;60138;55.808;37.078;2023-03-24T10:14:40;7.00;;;4.70;;
70213;SDS011;60138;55.808;37.078;2023-03-24T10:20:43;7.10;;;5.32;;
70213;SDS011;60138;55.808;37.078;2023-03-24T10:31:52;9.40;;;4.60;;
70213;SDS011;60138;55.808;37.078;2023-03-24T10:34:22;6.05;;;4.63;;
70213;SDS011;60138;55.808;37.078;2023-03-24T10:36:52;6.35;;;3.97;;
70213;SDS011;60138;55.808;37.078;2023-03-24T10:39:20;8.35;;;4.15;;
70213;SDS011;60138;55.808;37.078;2023-03-24T10:41:46;5.67;;;4.10;;
70213;SDS011;60138;55.808;37.078;2023-03-24T10:44:13;5.20;;;4.50;;
70213;SDS011;60138;55.808;37.078;2023-03-24T10:46:43;5.65;;;4.15;;
70213;SDS011;60138;55.808;37.078;2023-03-24T10:51:37;4.75;;;3.75;;
70213;SDS011;60138;55.808;37.078;2023-03-24T10:54:10;5.35;;;4.57;;
70213;SDS011;60138;55.808;37.078;2023-03-24T10:56:45;7.00;;;3.50;;
70213;SDS011;60138;55.808;37.078;2023-03-24T11:02:26;8.45;;;4.03;;
70213;SDS011;60138;55.808;37.078;2023-03-24T11:05:17;5.28;;;3.25;;
70213;SDS011;60138;55.808;37.078;2023-03-24T11:07:44;5.78;;;3.42;;
70213;SDS011;60138;55.808;37.078;2023-03-24T11:10:13;4.10;;;3.20;;
70213;SDS011;60138;55.808;37.078;2023-03-24T11:17:52;6.40;;;4.10;;
70213;SDS011;60138;55.808;37.078;2023-03-24T11:20:24;5.75;;;4.22;;
70213;SDS011;60138;55.808;37.078;2023-03-24T11:25:46;5.53;;;3.78;;
70213;SDS011;60138;55.808;37.078;2023-03-24T11:28:38;5.72;;;4.00;;
70213;SDS011;60138;55.808;37.078;2023-03-24T11:31:08;5.07;;;3.88;;
70213;SDS011;60138;55.808;37.078;2023-03-24T11:33:40;7.63;;;4.82;;
70213;SDS011;60138;55.808;37.078;2023-03-24T11:38:59;5.85;;;3.55;;
70213;SDS011;60138;55.808;37.078;2023-03-24T11:41:35;5.47;;;4.20;;
70213;SDS011;60138;55.808;37.078;2023-03-24T11:46:40;7.28;;;4.65;;
70213;SDS011;60138;55.808;37.078;2023-03-24T11:49:08;6.50;;;4.37;;
70213;SDS011;60138;55.808;37.078;2023-03-24T11:51:40;5.97;;;4.15;;
70213;SDS011;60138;55.808;37.078;2023-03-24T11:54:10;6.13;;;3.78;;
70213;SDS011;60138;55.808;37.078;2023-03-24T11:59:24;6.05;;;4.70;;
70213;SDS011;60138;55.808;37.078;2023-03-24T12:01:59;7.63;;;4.33;;
70213;SDS011;60138;55.808;37.078;2023-03-24T12:17:41;4.88;;;2.85;;
70213;SDS011;60138;55.808;37.078;2023-03-24T12:23:36;5.85;;;3.20;;
70213;SDS011;60138;55.808;37.078;2023-03-24T12:26:16;4.38;;;3.45;;
70213;SDS011;60138;55.808;37.078;2023-03-24T12:28:51;4.13;;;3.00;;
70213;SDS011;60138;55.808;37.078;2023-03-24T12:46:03;5.28;;;3.85;;
70213;SDS011;60138;55.808;37.078;2023-03-24T12:56:52;3.33;;;2.70;;
70213;SDS011;60138;55.808;37.078;2023-03-24T12:59:45;4.88;;;2.95;;
70213;SDS011;60138;55.808;37.078;2023-03-24T13:02:32;4.00;;;2.38;;
70213;SDS011;60138;55.808;37.078;2023-03-24T13:05:04;4.47;;;2.70;;
70213;SDS011;60138;55.808;37.078;2023-03-24T13:07:33;4.18;;;2.80;;
70213;SDS011;60138;55.808;37.078;2023-03-24T13:10:02;6.00;;;2.40;;
70213;SDS011;60138;55.808;37.078;2023-03-24T13:15:37;3.17;;;2.38;;
70213;SDS011;60138;55.808;37.078;2023-03-24T13:20:47;4.65;;;3.25;;
70213;SDS011;60138;55.808;37.078;2023-03-24T13:25:51;3.75;;;2.55;;
70213;SDS011;60138;55.808;37.078;2023-03-24T13:28:27;4.37;;;3.27;;
70213;SDS011;60138;55.808;37.078;2023-03-24T13:30:56;4.60;;;3.25;;
70213;SDS011;60138;55.808;37.078;2023-03-24T13:33:26;5.13;;;3.25;;
70213;SDS011;60138;55.808;37.078;2023-03-24T13:38:36;5.25;;;3.03;;
70213;SDS011;60138;55.808;37.078;2023-03-24T13:41:05;4.50;;;3.47;;
70213;SDS011;60138;55.808;37.078;2023-03-24T13:43:35;6.38;;;3.17;;
70213;SDS011;60138;55.808;37.078;2023-03-24T13:46:02;7.28;;;2.95;;
70213;SDS011;60138;55.808;37.078;2023-03-24T13:51:16;5.28;;;2.75;;
70213;SDS011;60138;55.808;37.078;2023-03-24T13:53:58;3.70;;;2.88;;
70213;SDS011;60138;55.808;37.078;2023-03-24T13:56:47;3.97;;;3.20;;
70213;SDS011;60138;55.808;37.078;2023-03-24T14:02:07;4.77;;;2.77;;
70213;SDS011;60138;55.808;37.078;2023-03-24T14:10:26;5.20;;;3.08;;
70213;SDS011;60138;55.808;37.078;2023-03-24T14:13:01;5.90;;;3.63;;
70213;SDS011;60138;55.808;37.078;2023-03-24T14:18:14;4.43;;;2.70;;
70213;SDS011;60138;55.808;37.078;2023-03-24T14:21:01;6.03;;;3.67;;
70213;SDS011;60138;55.808;37.078;2023-03-24T14:28:48;5.30;;;3.33;;
70213;SDS011;60138;55.808;37.078;2023-03-24T14:36:40;4.47;;;3.05;;
70213;SDS011;60138;55.808;37.078;2023-03-24T14:41:50;4.60;;;2.80;;
70213;SDS011;60138;55.808;37.078;2023-03-24T14:47:15;5.65;;;3.25;;
70213;SDS011;60138;55.808;37.078;2023-03-24T14:49:43;4.30;;;3.22;;
70213;SDS011;60138;55.808;37.078;2023-03-24T14:52:11;4.17;;;2.37;;
70213;SDS011;60138;55.808;37.078;2023-03-24T14:54:53;4.53;;;3.10;;
70213;SDS011;60138;55.808;37.078;2023-03-24T14:57:23;6.88;;;2.80;;
70213;SDS011;60138;55.808;37.078;2023-03-24T15:02:35;6.82;;;4.60;;
70213;SDS011;60138;55.808;37.078;2023-03-24T15:07:40;7.72;;;3.13;;
70213;SDS011;60138;55.808;37.078;2023-03-24T15:10:14;7.35;;;3.70;;
70213;SDS011;60138;55.808;37.078;2023-03-24T15:12:45;5.30;;;3.38;;
70213;SDS011;60138;55.808;37.078;2023-03-24T15:15:16;5.25;;;2.97;;
70213;SDS011;60138;55.808;37.078;2023-03-24T15:17:44;7.67;;;3.70;;
70213;SDS011;60138;55.808;37.078;2023-03-24T15:20:20;5.72;;;3.53;;
70213;SDS011;60138;55.808;37.078;2023-03-24T15:22:56;6.38;;;3.55;;
70213;SDS011;60138;55.808;37.078;2023-03-24T15:25:32;5.35;;;3.20;;
70213;SDS011;60138;55.808;37.078;2023-03-24T15:27:58;5.67;;;4.00;;
70213;SDS011;60138;55.808;37.078;2023-03-24T15:30:24;9.32;;;4.20;;
70213;SDS011;60138;55.808;37.078;2023-03-24T15:32:52;6.30;;;4.05;;
70213;SDS011;60138;55.808;37.078;2023-03-24T15:35:20;5.65;;;2.53;;
70213;SDS011;60138;55.808;37.078;2023-03-24T15:37:51;5.63;;;4.10;;
70213;SDS011;60138;55.808;37.078;2023-03-24T15:42:52;4.80;;;3.22;;
70213;SDS011;60138;55.808;37.078;2023-03-24T15:45:25;7.00;;;2.72;;
70213;SDS011;60138;55.808;37.078;2023-03-24T15:47:53;6.07;;;2.70;;
70213;SDS011;60138;55.808;37.078;2023-03-24T15:50:36;4.53;;;3.53;;
70213;SDS011;60138;55.808;37.078;2023-03-24T15:55:40;5.45;;;2.45;;
70213;SDS011;60138;55.808;37.078;2023-03-24T15:58:23;6.47;;;2.53;;
70213;SDS011;60138;55.808;37.078;2023-03-24T16:00:51;5.63;;;3.60;;
70213;SDS011;60138;55.808;37.078;2023-03-24T16:03:20;3.95;;;2.80;;
70213;SDS011;60138;55.808;37.078;2023-03-24T16:05:48;9.10;;;4.50;;
70213;SDS011;60138;55.808;37.078;2023-03-24T16:08:47;14.98;;;7.65;;
70213;SDS011;60138;55.808;37.078;2023-03-24T16:11:08;14.40;;;7.68;;
70213;SDS011;60138;55.808;37.078;2023-03-24T16:13:35;10.77;;;6.63;;
70213;SDS011;60138;55.808;37.078;2023-03-24T16:18:38;13.23;;;5.80;;
70213;SDS011;60138;55.808;37.078;2023-03-24T16:23:54;12.02;;;5.57;;
70213;SDS011;60138;55.808;37.078;2023-03-24T16:28:49;7.53;;;4.00;;
70213;SDS011;60138;55.808;37.078;2023-03-24T16:31:16;5.30;;;3.85;;
70213;SDS011;60138;55.808;37.078;2023-03-24T16:33:49;5.78;;;3.50;;
70213;SDS011;60138;55.808;37.078;2023-03-24T16:36:15;4.70;;;3.80;;
70213;SDS011;60138;55.808;37.078;2023-03-24T16:38:41;4.30;;;3.27;;
70213;SDS011;60138;55.808;37.078;2023-03-24T16:41:08;5.63;;;3.60;;
70213;SDS011;60138;55.808;37.078;2023-03-24T16:43:34;5.88;;;4.13;;
70213;SDS011;60138;55.808;37.078;2023-03-24T16:46:00;7.97;;;4.20;;
70213;SDS011;60138;55.808;37.078;2023-03-24T16:48:25;6.78;;;3.97;;
70213;SDS011;60138;55.808;37.078;2023-03-24T16:50:51;7.20;;;3.47;;
70213;SDS011;60138;55.808;37.078;2023-03-24T16:53:17;6.20;;;3.80;;
70213;SDS011;60138;55.808;37.078;2023-03-24T16:55:43;11.77;;;5.60;;
70213;SDS011;60138;55.808;37.078;2023-03-24T16:58:10;11.10;;;6.55;;
70213;SDS011;60138;55.808;37.078;2023-03-24T17:00:37;20.73;;;7.82;;
70213;SDS011;60138;55.808;37.078;2023-03-24T17:03:03;24.85;;;9.18;;
70213;SDS011;60138;55.808;37.078;2023-03-24T17:05:36;16.48;;;9.40;;
70213;SDS011;60138;55.808;37.078;2023-03-24T17:08:10;13.43;;;6.60;;
70213;SDS011;60138;55.808;37.078;2023-03-24T17:10:35;12.00;;;6.93;;
70213;SDS011;60138;55.808;37.078;2023-03-24T17:13:01;15.37;;;7.43;;
70213;SDS011;60138;55.808;37.078;2023-03-24T17:15:28;14.38;;;6.85;;
70213;SDS011;60138;55.808;37.078;2023-03-24T17:17:55;12.27;;;7.30;;
70213;SDS011;60138;55.808;37.078;2023-03-24T17:20:21;16.77;;;7.65;;
70213;SDS011;60138;55.808;37.078;2023-03-24T17:22:49;15.00;;;7.57;;
70213;SDS011;60138;55.808;37.078;2023-03-24T17:25:17;10.13;;;5.57;;
70213;SDS011;60138;55.808;37.078;2023-03-24T17:27:45;9.60;;;5.35;;
70213;SDS011;60138;55.808;37.078;2023-03-24T17:30:15;7.45;;;4.78;;
70213;SDS011;60138;55.808;37.078;2023-03-24T17:32:42;7.63;;;4.23;;
70213;SDS011;60138;55.808;37.078;2023-03-24T17:35:12;8.02;;;4.32;;
70213;SDS011;60138;55.808;37.078;2023-03-24T17:37:40;5.60;;;4.38;;
70213;SDS011;60138;55.808;37.078;2023-03-24T17:40:05;8.23;;;4.30;;
70213;SDS011;60138;55.808;37.078;2023-03-24T17:42:32;5.82;;;3.63;;
70213;SDS011;60138;55.808;37.078;2023-03-24T17:44:57;7.68;;;3.88;;
70213;SDS011;60138;55.808;37.078;2023-03-24T17:47:23;7.78;;;5.05;;
70213;SDS011;60138;55.808;37.078;2023-03-24T17:49:49;8.93;;;3.83;;
70213;SDS011;60138;55.808;37.078;2023-03-24T17:52:14;6.13;;;4.07;;
70213;SDS011;60138;55.808;37.078;2023-03-24T17:54:40;7.87;;;3.97;;
70213;SDS011;60138;55.808;37.078;2023-03-24T17:57:06;5.47;;;4.25;;
70213;SDS011;60138;55.808;37.078;2023-03-24T17:59:32;4.57;;;3.70;;
70213;SDS011;60138;55.808;37.078;2023-03-24T18:01:58;8.93;;;4.82;;
70213;SDS011;60138;55.808;37.078;2023-03-24T18:04:23;7.20;;;4.43;;
70213;SDS011;60138;55.808;37.078;2023-03-24T18:06:49;7.80;;;4.75;;
70213;SDS011;60138;55.808;37.078;2023-03-24T18:09:15;6.50;;;4.65;;